createdAt,value
2022-09-15T00:02:22.175Z,74.02
2022-09-15T00:04:48.855Z,73.91
2022-09-15T00:07:16.265Z,74.07
2022-09-15T00:09:42.930Z,73.85
2022-09-15T00:12:09.534Z,73.98
2022-09-15T00:14:36.118Z,74.43
2022-09-15T00:17:02.916Z,73.59
2022-09-15T00:19:29.567Z,73.92
2022-09-15T00:21:56.214Z,74.10
2022-09-15T00:24:22.778Z,73.75
2022-09-15T00:26:49.360Z,73.69
2022-09-15T00:29:15.943Z,73.50
2022-09-15T00:31:42.585Z,74.16
2022-09-15T00:34:12.192Z,73.85
2022-09-15T00:36:38.954Z,73.74
2022-09-15T00:39:05.737Z,73.86
2022-09-15T00:41:32.393Z,73.82
2022-09-15T00:44:04.154Z,73.91
2022-09-15T00:46:36.934Z,73.70
2022-09-15T00:49:13.508Z,74.00
2022-09-15T00:51:46.957Z,74.05
2022-09-15T00:54:19.426Z,73.93
2022-09-15T00:56:48.941Z,74.22
2022-09-15T00:59:19.745Z,74.21
2022-09-15T01:01:47.069Z,73.84
2022-09-15T01:04:14.608Z,74.28
2022-09-15T01:06:45.268Z,73.99
2022-09-15T01:09:26.772Z,73.95
2022-09-15T01:11:53.653Z,73.55
2022-09-15T01:14:20.240Z,73.93
2022-09-15T01:17:11.122Z,73.83
2022-09-15T01:19:56.665Z,73.71
2022-09-15T01:22:48.556Z,73.58
2022-09-15T01:25:20.610Z,73.99
2022-09-15T01:27:53.500Z,74.01
2022-09-15T01:30:24.321Z,73.68
2022-09-15T01:33:05.702Z,73.64
2022-09-15T01:35:56.698Z,73.19
2022-09-15T01:38:38.645Z,72.75
2022-09-15T01:41:17.749Z,73.27
2022-09-15T01:44:06.009Z,72.73
2022-09-15T01:46:40.409Z,72.83
2022-09-15T01:49:09.530Z,72.95
2022-09-15T01:51:37.140Z,72.79
2022-09-15T01:54:05.891Z,72.78
2022-09-15T01:56:32.795Z,72.89
2022-09-15T01:58:59.687Z,72.70
2022-09-15T02:01:34.116Z,72.63
2022-09-15T02:04:30.484Z,72.30
2022-09-15T02:07:20.600Z,72.78
2022-09-15T02:10:03.901Z,73.09
2022-09-15T02:12:37.933Z,73.18
2022-09-15T02:15:08.746Z,73.22
2022-09-15T02:17:39.885Z,73.14
2022-09-15T02:20:23.838Z,72.92
2022-09-15T02:22:54.703Z,72.71
2022-09-15T02:25:47.201Z,72.48
2022-09-15T02:28:15.245Z,72.47
2022-09-15T02:30:44.932Z,72.64
2022-09-15T02:33:19.748Z,72.66
2022-09-15T02:35:46.827Z,73.00
2022-09-15T02:38:14.169Z,72.82
2022-09-15T02:40:42.826Z,72.88
2022-09-15T02:43:15.277Z,72.85
2022-09-15T02:45:42.414Z,72.84
2022-09-15T02:48:09.746Z,73.18
2022-09-15T02:50:37.178Z,72.92
2022-09-15T02:53:04.175Z,73.08
2022-09-15T02:55:30.942Z,72.90
2022-09-15T02:57:58.239Z,73.13
2022-09-15T03:00:25.753Z,73.13
2022-09-15T03:02:54.434Z,72.35
2022-09-15T03:05:26.929Z,72.16
2022-09-15T03:07:53.893Z,72.26
2022-09-15T03:10:21.295Z,72.34
2022-09-15T03:12:49.933Z,72.33
2022-09-15T03:15:18.935Z,72.03
2022-09-15T03:17:47.238Z,72.08
2022-09-15T03:20:20.366Z,71.80
2022-09-15T03:22:47.772Z,71.92
2022-09-15T03:25:14.425Z,72.02
2022-09-15T03:27:41.174Z,71.75
2022-09-15T03:30:08.677Z,71.89
2022-09-15T03:32:35.368Z,71.85
2022-09-15T03:35:02.219Z,71.75
2022-09-15T03:37:28.814Z,71.50
2022-09-15T03:39:56.048Z,71.47
2022-09-15T03:42:22.759Z,71.86
2022-09-15T03:44:49.429Z,72.01
2022-09-15T03:47:16.165Z,72.04
2022-09-15T03:49:42.885Z,72.37
2022-09-15T03:52:10.231Z,72.21
2022-09-15T03:54:36.851Z,72.74
2022-09-15T03:57:03.693Z,72.38
2022-09-15T03:59:30.307Z,72.34
2022-09-15T04:01:57.115Z,72.54
2022-09-15T04:04:24.057Z,72.50
2022-09-15T04:06:50.662Z,72.42
2022-09-15T04:09:17.272Z,72.49
2022-09-15T04:11:43.876Z,72.88
2022-09-15T04:14:10.475Z,72.64
2022-09-15T04:16:37.104Z,72.37
2022-09-15T04:19:03.869Z,72.28
2022-09-15T04:21:32.066Z,71.95
2022-09-15T04:23:58.719Z,72.44
2022-09-15T04:26:28.963Z,72.47
2022-09-15T04:28:55.768Z,72.14
2022-09-15T04:31:22.638Z,72.40
2022-09-15T04:33:52.581Z,72.28
2022-09-15T04:36:21.980Z,73.02
2022-09-15T04:38:49.311Z,72.17
2022-09-15T04:41:16.505Z,72.45
2022-09-15T04:43:46.115Z,72.32
2022-09-15T04:46:13.992Z,72.61
2022-09-15T04:48:41.154Z,72.00
2022-09-15T04:51:12.169Z,71.82
2022-09-15T04:53:39.121Z,72.38
2022-09-15T04:56:11.231Z,71.68
2022-09-15T04:59:12.654Z,71.77
2022-09-15T05:01:39.522Z,71.42
2022-09-15T05:04:06.156Z,71.33
2022-09-15T05:06:33.608Z,71.37
2022-09-15T05:09:00.260Z,71.69
2022-09-15T05:11:28.310Z,72.16
2022-09-15T05:13:55.095Z,72.29
2022-09-15T05:16:24.386Z,72.00
2022-09-15T05:18:52.894Z,71.62
2022-09-15T05:21:21.047Z,71.97
2022-09-15T05:23:48.462Z,72.17
2022-09-15T05:26:17.583Z,71.78
2022-09-15T05:28:44.282Z,71.82
2022-09-15T05:31:19.967Z,71.62
2022-09-15T05:33:47.800Z,71.10
2022-09-15T05:36:15.347Z,71.54
2022-09-15T05:38:42.053Z,71.40
2022-09-15T05:41:10.854Z,71.69
2022-09-15T05:43:38.389Z,71.62
2022-09-15T05:46:07.678Z,72.23
2022-09-15T05:48:34.823Z,71.68
2022-09-15T05:51:01.779Z,71.70
2022-09-15T05:53:28.390Z,72.12
2022-09-15T05:55:56.766Z,71.64
2022-09-15T05:58:23.649Z,71.94
2022-09-15T06:00:50.430Z,72.01
2022-09-15T06:03:17.687Z,72.21
2022-09-15T06:05:44.401Z,72.28
2022-09-15T06:08:11.243Z,72.18
2022-09-15T06:10:37.834Z,72.45
2022-09-15T06:13:04.535Z,71.86
2022-09-15T06:15:31.906Z,71.74
2022-09-15T06:17:58.747Z,71.98
2022-09-15T06:20:25.610Z,72.37
2022-09-15T06:22:53.361Z,72.95
2022-09-15T06:25:19.948Z,72.73
2022-09-15T06:27:49.473Z,73.27
2022-09-15T06:30:16.259Z,73.22
2022-09-15T06:32:47.516Z,73.83
2022-09-15T06:35:15.306Z,73.74
2022-09-15T06:37:42.077Z,73.79
2022-09-15T06:40:09.200Z,74.46
2022-09-15T06:42:35.838Z,73.81
2022-09-15T06:45:03.033Z,73.92
2022-09-15T06:47:33.948Z,73.81
2022-09-15T06:50:01.133Z,73.83
2022-09-15T06:52:27.842Z,73.18
2022-09-15T06:54:54.639Z,73.81
2022-09-15T06:57:21.259Z,73.90
2022-09-15T06:59:47.888Z,73.67
2022-09-15T07:02:14.596Z,73.95
2022-09-15T07:04:41.348Z,74.36
2022-09-15T07:07:08.168Z,74.35
2022-09-15T07:09:34.818Z,74.20
2022-09-15T07:12:01.656Z,74.38
2022-09-15T07:14:28.250Z,74.26
2022-09-15T07:16:54.837Z,74.37
2022-09-15T07:19:21.704Z,74.54
2022-09-15T07:21:48.357Z,74.95
2022-09-15T07:24:15.162Z,74.65
2022-09-15T07:26:42.092Z,74.91
2022-09-15T07:29:09.906Z,74.80
2022-09-15T07:31:38.525Z,74.91
2022-09-15T07:34:06.019Z,75.02
2022-09-15T07:36:32.763Z,74.63
2022-09-15T07:38:59.402Z,74.82
2022-09-15T07:41:30.091Z,75.36
2022-09-15T07:43:58.264Z,75.53
2022-09-15T07:46:26.046Z,75.25
2022-09-15T07:48:57.471Z,75.46
2022-09-15T07:51:25.432Z,75.23
2022-09-15T07:53:53.144Z,75.40
2022-09-15T07:56:20.651Z,75.53
2022-09-15T07:58:47.928Z,74.57
2022-09-15T08:01:15.527Z,74.53
2022-09-15T08:03:48.874Z,74.27
2022-09-15T08:06:17.820Z,74.04
2022-09-15T08:08:44.418Z,74.13
2022-09-15T08:11:18.889Z,73.98
2022-09-15T08:13:49.747Z,73.85
2022-09-15T08:16:19.428Z,73.96
2022-09-15T08:18:46.418Z,74.04
2022-09-15T08:21:20.356Z,73.79
2022-09-15T08:23:53.887Z,73.90
2022-09-15T08:26:20.601Z,74.04
2022-09-15T08:28:47.242Z,73.98
2022-09-15T08:31:14.727Z,73.66
2022-09-15T08:33:45.573Z,73.92
2022-09-15T08:36:13.292Z,73.84
2022-09-15T08:38:40.899Z,73.34
2022-09-15T08:41:40.914Z,73.50
2022-09-15T08:44:22.078Z,73.37
2022-09-15T08:46:51.728Z,73.13
2022-09-15T08:50:04.298Z,73.26
2022-09-15T08:52:41.879Z,72.95
2022-09-15T08:55:27.175Z,72.86
2022-09-15T08:57:54.091Z,72.87
2022-09-15T09:00:20.767Z,73.09
2022-09-15T09:03:00.223Z,72.63
2022-09-15T09:05:53.232Z,72.93
2022-09-15T09:08:40.982Z,72.74
2022-09-15T09:11:19.266Z,72.31
2022-09-15T09:13:50.758Z,72.16
2022-09-15T09:16:30.676Z,71.91
2022-09-15T09:19:08.366Z,71.93
2022-09-15T09:21:38.080Z,71.93
2022-09-15T09:24:08.605Z,71.99
2022-09-15T09:26:36.319Z,71.77
2022-09-15T09:29:08.384Z,71.86
2022-09-15T09:31:35.529Z,71.92
2022-09-15T09:34:13.991Z,71.80
2022-09-15T09:36:40.594Z,71.03
2022-09-15T09:39:12.477Z,70.85
2022-09-15T09:41:40.706Z,71.00
2022-09-15T09:44:11.772Z,70.65
2022-09-15T09:46:38.925Z,70.99
2022-09-15T09:49:17.039Z,70.85
2022-09-15T09:51:59.836Z,71.22
2022-09-15T09:54:28.670Z,70.61
2022-09-15T09:56:57.291Z,70.97
2022-09-15T09:59:35.133Z,70.40
2022-09-15T10:02:11.788Z,70.53
2022-09-15T10:04:39.912Z,70.43
2022-09-15T10:07:07.416Z,70.54
2022-09-15T10:09:34.170Z,70.16
2022-09-15T10:12:04.410Z,69.91
2022-09-15T10:14:41.480Z,70.21
2022-09-15T10:17:36.369Z,69.73
2022-09-15T10:20:05.965Z,69.52
2022-09-15T10:22:39.839Z,69.93
2022-09-15T10:25:21.305Z,69.68
2022-09-15T10:28:09.619Z,69.26
2022-09-15T10:30:36.975Z,69.44
2022-09-15T10:33:29.521Z,69.54
2022-09-15T10:36:03.413Z,69.82
2022-09-15T10:38:40.900Z,69.56
2022-09-15T10:41:18.501Z,69.59
2022-09-15T10:44:02.587Z,69.93
2022-09-15T10:47:02.966Z,69.53
2022-09-15T10:49:47.924Z,69.13
2022-09-15T10:52:32.827Z,69.17
2022-09-15T10:55:08.523Z,69.09
2022-09-15T10:57:53.709Z,69.17
2022-09-15T11:00:25.903Z,69.09
2022-09-15T11:03:13.976Z,68.76
2022-09-15T11:05:49.206Z,68.43
2022-09-15T11:08:34.495Z,68.88
2022-09-15T11:11:45.896Z,68.69
2022-09-15T11:15:00.526Z,68.51
2022-09-15T11:17:41.690Z,68.05
2022-09-15T11:20:26.790Z,68.44
2022-09-15T11:23:01.048Z,68.04
2022-09-15T11:25:30.482Z,68.23
2022-09-15T11:28:19.353Z,68.28
2022-09-15T11:30:51.978Z,68.65
2022-09-15T11:33:23.012Z,67.95
2022-09-15T11:35:59.389Z,67.80
2022-09-15T11:38:25.961Z,66.59
2022-09-15T11:41:02.949Z,65.70
2022-09-15T11:43:37.190Z,64.88
2022-09-15T11:46:10.156Z,64.97
2022-09-15T11:48:44.009Z,64.56
2022-09-15T11:51:11.779Z,64.88
2022-09-15T11:53:52.950Z,64.86
2022-09-15T11:56:24.822Z,65.20
2022-09-15T11:59:05.496Z,65.69
2022-09-15T12:01:44.439Z,65.69
2022-09-15T12:04:18.293Z,65.30
2022-09-15T12:07:11.108Z,65.26
2022-09-15T12:09:40.532Z,65.01
2022-09-15T12:12:11.617Z,64.49
2022-09-15T12:14:49.643Z,64.86
2022-09-15T12:17:22.522Z,64.93
2022-09-15T12:19:55.666Z,64.15
2022-09-15T12:22:32.180Z,64.29
2022-09-15T12:25:22.927Z,64.49
2022-09-15T12:28:23.924Z,64.55
2022-09-15T12:31:45.771Z,64.54
2022-09-15T12:34:35.497Z,62.57
2022-09-15T12:37:12.677Z,62.47
2022-09-15T12:39:43.641Z,63.18
2022-09-15T12:42:31.400Z,63.96
2022-09-15T12:45:21.148Z,63.08
2022-09-15T12:48:06.640Z,63.01
2022-09-15T12:50:37.775Z,63.74
2022-09-15T12:53:14.893Z,63.61
2022-09-15T12:55:55.737Z,62.55
2022-09-15T12:58:46.353Z,62.95
2022-09-15T13:01:19.411Z,63.42
2022-09-15T13:04:06.154Z,63.24
2022-09-15T13:06:38.458Z,63.15
2022-09-15T13:09:05.919Z,62.88
2022-09-15T13:11:38.737Z,62.98
2022-09-15T13:14:08.236Z,63.31
2022-09-15T13:16:41.136Z,62.54
2022-09-15T13:19:13.464Z,62.48
2022-09-15T13:21:43.167Z,62.81
2022-09-15T13:24:17.838Z,62.74
2022-09-15T13:26:49.431Z,62.57
2022-09-15T13:29:16.868Z,62.52
2022-09-15T13:31:55.602Z,62.70
2022-09-15T13:38:22.048Z,61.68
2022-09-15T13:41:31.126Z,61.05
2022-09-15T13:44:23.580Z,60.42
2022-09-15T13:47:00.026Z,60.65
2022-09-15T13:49:38.988Z,60.75
2022-09-15T13:52:14.277Z,61.09
2022-09-15T13:55:14.626Z,60.55
2022-09-15T14:00:54.409Z,60.15
2022-09-15T14:03:42.987Z,60.11
2022-09-15T14:06:23.481Z,59.14
2022-09-15T14:08:56.651Z,58.59
2022-09-15T14:11:31.361Z,58.97
2022-09-15T14:14:00.514Z,58.49
2022-09-15T14:16:27.895Z,58.03
2022-09-15T14:18:57.590Z,58.04
2022-09-15T14:21:32.577Z,59.12
2022-09-15T14:24:05.576Z,59.55
2022-09-15T14:26:34.488Z,59.77
2022-09-15T14:29:03.664Z,59.26
2022-09-15T14:31:33.467Z,59.95
2022-09-15T14:34:01.389Z,59.09
2022-09-15T14:36:31.867Z,59.84
2022-09-15T14:39:08.957Z,60.18
2022-09-15T14:41:36.705Z,59.83
2022-09-15T14:47:13.224Z,59.23
2022-09-15T14:49:39.829Z,59.32
2022-09-15T14:52:36.437Z,59.22
2022-09-15T14:55:08.089Z,60.12
2022-09-15T14:57:36.820Z,59.94
2022-09-15T15:00:07.832Z,59.68
2022-09-15T15:03:01.725Z,59.40
2022-09-15T15:05:34.056Z,60.07
2022-09-15T15:08:01.803Z,59.67
2022-09-15T15:10:35.467Z,59.82
2022-09-15T15:13:06.755Z,60.09
2022-09-15T15:15:34.314Z,59.91
2022-09-15T15:18:01.055Z,60.11
2022-09-15T15:20:30.416Z,59.93
2022-09-15T15:23:19.965Z,60.17
2022-09-15T15:25:49.288Z,60.59
2022-09-15T15:28:39.475Z,60.45
2022-09-15T15:31:17.867Z,60.49
2022-09-15T15:33:59.670Z,60.18
2022-09-15T15:36:28.736Z,60.52
2022-09-15T15:39:00.486Z,59.78
2022-09-15T15:41:35.458Z,59.75
2022-09-15T15:44:09.241Z,59.27
2022-09-15T15:46:54.062Z,58.82
2022-09-15T15:49:23.791Z,59.13
2022-09-15T15:51:50.353Z,59.06
2022-09-15T15:54:17.139Z,59.88
2022-09-15T15:56:43.937Z,59.34
2022-09-15T15:59:14.228Z,59.02
2022-09-15T16:01:41.015Z,59.26
2022-09-15T16:04:07.967Z,59.13
2022-09-15T16:06:35.174Z,59.31
2022-09-15T16:09:03.761Z,58.55
2022-09-15T16:11:30.397Z,58.84
2022-09-15T16:13:57.021Z,59.19
2022-09-15T16:16:25.887Z,58.97
2022-09-15T16:18:53.006Z,59.03
2022-09-15T16:21:26.529Z,59.18
2022-09-15T16:23:53.151Z,59.62
2022-09-15T16:26:23.299Z,59.69
2022-09-15T16:28:50.194Z,59.96
2022-09-15T16:31:16.987Z,59.84
2022-09-15T16:33:43.990Z,59.56
2022-09-15T16:36:15.471Z,59.90
2022-09-15T16:38:42.768Z,59.96
2022-09-15T16:41:20.170Z,60.24
2022-09-15T16:43:47.182Z,60.42
2022-09-15T16:46:14.490Z,60.34
2022-09-15T16:48:42.795Z,60.11
2022-09-15T16:51:26.657Z,60.18
2022-09-15T16:53:54.087Z,60.69
2022-09-15T16:56:20.684Z,60.70
2022-09-15T16:58:47.444Z,60.69
2022-09-15T17:01:18.223Z,60.82
2022-09-15T17:03:45.302Z,61.59
2022-09-15T17:06:17.757Z,61.72
2022-09-15T17:08:45.003Z,61.72
2022-09-15T17:11:16.431Z,61.50
2022-09-15T17:13:43.621Z,61.03
2022-09-15T17:16:11.439Z,60.97
2022-09-15T17:18:38.193Z,61.65
2022-09-15T17:21:04.943Z,61.08
2022-09-15T17:23:38.072Z,61.57
2022-09-15T17:26:13.814Z,61.95
2022-09-15T17:28:41.118Z,61.83
2022-09-15T17:31:17.536Z,61.80
2022-09-15T17:33:44.642Z,61.84
2022-09-15T17:36:11.749Z,61.67
2022-09-15T17:38:40.965Z,61.70
2022-09-15T17:41:18.789Z,62.26
2022-09-15T17:43:45.552Z,62.59
2022-09-15T17:46:12.329Z,62.92
2022-09-15T17:48:39.282Z,62.92
2022-09-15T17:51:09.957Z,62.98
2022-09-15T17:53:36.561Z,62.92
2022-09-15T17:56:03.219Z,62.75
2022-09-15T17:58:31.482Z,63.14
2022-09-15T18:00:58.508Z,62.65
2022-09-15T18:03:29.528Z,63.06
2022-09-15T18:05:58.586Z,62.75
2022-09-15T18:08:25.737Z,62.73
2022-09-15T18:10:52.544Z,63.30
2022-09-15T18:13:24.502Z,63.45
2022-09-15T18:15:51.407Z,63.64
2022-09-15T18:18:20.351Z,63.81
2022-09-15T18:20:47.482Z,63.89
2022-09-15T18:23:17.005Z,63.59
2022-09-15T18:25:44.361Z,63.85
2022-09-15T18:28:11.119Z,63.98
2022-09-15T18:30:42.353Z,64.22
2022-09-15T18:33:25.519Z,64.07
2022-09-15T18:35:56.145Z,63.87
2022-09-15T18:38:23.324Z,64.01
2022-09-15T18:40:55.404Z,64.04
2022-09-15T18:43:22.894Z,63.81
2022-09-15T18:45:50.330Z,64.11
2022-09-15T18:48:17.080Z,64.31
2022-09-15T18:50:44.601Z,64.91
2022-09-15T18:53:11.926Z,64.72
2022-09-15T18:55:40.902Z,64.99
2022-09-15T18:58:07.581Z,65.28
2022-09-15T19:00:34.167Z,65.62
2022-09-15T19:03:02.449Z,65.60
2022-09-15T19:05:30.051Z,65.59
2022-09-15T19:07:57.301Z,65.22
2022-09-15T19:10:24.795Z,65.24
2022-09-15T19:12:51.521Z,65.29
2022-09-15T19:15:18.332Z,65.60
2022-09-15T19:17:44.956Z,65.72
2022-09-15T19:20:14.251Z,65.65
2022-09-15T19:22:41.739Z,65.54
2022-09-15T19:25:08.916Z,66.27
2022-09-15T19:27:35.745Z,66.04
2022-09-15T19:30:02.338Z,66.08
2022-09-15T19:32:28.926Z,66.09
2022-09-15T19:34:55.532Z,66.24
2022-09-15T19:37:22.845Z,66.35
2022-09-15T19:39:50.210Z,66.33
2022-09-15T19:42:17.026Z,66.54
2022-09-15T19:44:43.997Z,66.65
2022-09-15T19:47:10.914Z,66.81
2022-09-15T19:49:37.880Z,66.90
2022-09-15T19:52:06.368Z,66.98
2022-09-15T19:54:34.538Z,67.33
2022-09-15T19:57:01.792Z,67.42
2022-09-15T19:59:31.298Z,67.73
2022-09-15T20:01:58.528Z,67.84
2022-09-15T20:04:25.224Z,67.66
2022-09-15T20:06:51.955Z,67.93
2022-09-15T20:09:18.807Z,67.74
2022-09-15T20:11:45.636Z,68.20
2022-09-15T20:14:12.290Z,67.81
2022-09-15T20:16:38.978Z,68.29
2022-09-15T20:19:06.167Z,68.07
2022-09-15T20:21:51.376Z,68.10
2022-09-15T20:24:19.262Z,68.31
2022-09-15T20:26:46.063Z,68.52
2022-09-15T20:29:13.195Z,68.67
2022-09-15T20:31:40.190Z,68.58
2022-09-15T20:34:07.259Z,68.15
2022-09-15T20:36:36.265Z,68.20
2022-09-15T20:39:05.230Z,68.46
2022-09-15T20:41:32.072Z,68.16
2022-09-15T20:43:59.350Z,68.37
2022-09-15T20:46:26.579Z,68.33
2022-09-15T20:48:53.444Z,68.40
2022-09-15T20:51:25.710Z,68.25
2022-09-15T20:53:54.524Z,68.22
2022-09-15T20:56:24.981Z,68.60
2022-09-15T20:58:52.999Z,68.37
2022-09-15T21:01:22.587Z,68.26
2022-09-15T21:03:49.492Z,68.13
2022-09-15T21:06:29.620Z,67.82
2022-09-15T21:08:57.756Z,68.01
2022-09-15T21:11:26.326Z,68.36
2022-09-15T21:13:53.542Z,67.94
2022-09-15T21:16:23.111Z,68.15
2022-09-15T21:18:50.334Z,68.11
2022-09-15T21:21:28.355Z,68.32
2022-09-15T21:23:56.874Z,68.31
2022-09-15T21:26:25.786Z,67.88
2022-09-15T21:28:53.609Z,67.90
2022-09-15T21:31:28.346Z,67.82
2022-09-15T21:33:55.685Z,67.81
2022-09-15T21:36:27.576Z,67.36
2022-09-15T21:38:56.241Z,67.81
2022-09-15T21:41:26.079Z,67.74
2022-09-15T21:43:54.962Z,68.13
2022-09-15T21:46:24.063Z,68.30
2022-09-15T21:48:51.794Z,68.12
2022-09-15T21:51:24.196Z,67.86
2022-09-15T21:53:52.524Z,67.95
2022-09-15T21:56:19.185Z,67.74
2022-09-15T21:58:45.860Z,68.11
2022-09-15T22:01:32.755Z,68.12
2022-09-15T22:04:04.985Z,68.27
2022-09-15T22:06:33.747Z,68.29
2022-09-15T22:09:02.020Z,68.38
2022-09-15T22:11:29.049Z,68.32
2022-09-15T22:13:55.787Z,68.83
2022-09-15T22:16:24.191Z,68.84
2022-09-15T22:18:51.587Z,68.69
2022-09-15T22:21:20.671Z,68.97
2022-09-15T22:23:48.637Z,68.81
2022-09-15T22:26:23.981Z,68.24
2022-09-15T22:28:50.571Z,67.97
2022-09-15T22:31:19.156Z,68.19
2022-09-15T22:33:46.028Z,68.49
2022-09-15T22:36:14.578Z,68.16
2022-09-15T22:38:41.201Z,68.38
2022-09-15T22:41:10.104Z,67.94
2022-09-15T22:43:37.040Z,67.73
2022-09-15T22:46:04.234Z,67.97
2022-09-15T22:48:31.143Z,67.88
2022-09-15T22:50:58.140Z,67.99
2022-09-15T22:53:25.423Z,68.01
2022-09-15T22:55:53.284Z,67.76
2022-09-15T22:58:20.043Z,67.63
2022-09-15T23:00:46.807Z,67.52
2022-09-15T23:03:13.496Z,67.65
2022-09-15T23:05:40.149Z,67.37
2022-09-15T23:08:06.933Z,67.18
2022-09-15T23:10:33.520Z,67.13
2022-09-15T23:13:00.536Z,67.13
2022-09-15T23:15:28.034Z,67.20
2022-09-15T23:17:54.679Z,67.09
2022-09-15T23:20:21.630Z,66.78
2022-09-15T23:22:48.281Z,66.94
2022-09-15T23:25:14.968Z,66.68
2022-09-15T23:27:41.563Z,66.66
2022-09-15T23:30:08.983Z,66.89
2022-09-15T23:32:35.560Z,67.20
2022-09-15T23:35:02.175Z,67.21
2022-09-15T23:37:28.804Z,66.61
2022-09-15T23:39:55.527Z,66.79
2022-09-15T23:42:22.185Z,66.98
2022-09-15T23:44:48.793Z,66.81
2022-09-15T23:47:15.368Z,67.09
2022-09-15T23:49:42.025Z,66.87
2022-09-15T23:52:08.626Z,66.96
2022-09-15T23:54:35.319Z,66.98
2022-09-15T23:57:01.914Z,67.19
2022-09-15T23:59:28.493Z,66.99
